ADDS METAR Data INFO
IDs: Format: Raw Decoded Include TAF

Data at: 1515 UTC 23 Oct 2017

KUSE 231455Z AUTO 15008KT 4SM -RA FEW050 BKN070 17/14 A2981 RMK AO2
KUSE 231435Z AUTO 14008G14KT 10SM OVC075 18/13 A2982 RMK AO2
KUSE 231415Z AUTO 15006KT 10SM BKN075 BKN090 18/12 A2983 RMK AO2
KUSE 231355Z AUTO 15006KT 10SM SCT037 BKN080 OVC090 18/12 A2983 RMK AO2
KUSE 231335Z AUTO 15010KT 10SM BKN037 OVC060 17/12 A2986 RMK AO2
KUSE 231315Z AUTO 15010KT 10SM SCT060 17/12 A2986 RMK AO2
KUSE 231255Z AUTO 15008KT 10SM FEW040 FEW120 17/12 A2986 RMK AO2
KUSE 231235Z AUTO 17007KT 10SM BKN040 BKN049 BKN065 17/11 A2987 RMK AO2
KUSE 231215Z AUTO 16009KT 10SM BKN042 OVC049 17/11 A2988 RMK AO2
KUSE 231155Z AUTO 15009KT 10SM BKN048 BKN060 OVC070 17/11 A2988 RMK AO2
KUSE 231135Z AUTO 16007KT 10SM FEW049 BKN060 BKN070 17/11 A2989 RMK AO2
KUSE 231115Z AUTO 15007KT 10SM FEW048 FEW055 17/11 A2989 RMK AO2
KUSE 231055Z AUTO 15009KT 10SM FEW047 SCT055 BKN075 16/11 A2989 RMK AO2
KUSE 231035Z AUTO 16008KT 10SM FEW046 FEW055 BKN075 16/10 A2990 RMK AO2
KUSE 231015Z AUTO 15008KT 10SM FEW046 SCT055 BKN070 16/10 A2991 RMK AO2
KUSE 230955Z AUTO 15007KT 10SM SCT047 BKN070 16/10 A2992 RMK AO2
KUSE 230935Z AUTO 16006KT 10SM BKN065 15/10 A2993 RMK AO2
KUSE 230915Z AUTO 16007KT 10SM OVC065 16/10 A2993 RMK AO2
KUSE 230855Z AUTO 17007KT 10SM BKN065 16/10 A2994 RMK AO2
KUSE 230835Z AUTO 17008KT 10SM CLR 16/10 A2995 RMK AO2
KUSE 230815Z AUTO 15007KT 10SM CLR 16/10 A2994 RMK AO2
KUSE 230755Z AUTO 16007KT 10SM FEW050 SCT060 SCT070 16/10 A2995 RMK AO2
KUSE 230735Z AUTO 17007KT 10SM FEW050 OVC060 17/10 A2996 RMK AO2
KUSE 230715Z AUTO 17007KT 10SM OVC055 16/10 A2997 RMK AO2
KUSE 230655Z AUTO 17006KT 10SM OVC050 16/10 A2998 RMK AO2
KUSE 230635Z AUTO 16006KT 10SM OVC050 17/10 A2998 RMK AO2
KUSE 230615Z AUTO 16005KT 10SM OVC050 16/10 A2998 RMK AO2
KUSE 230555Z AUTO 17006KT 10SM BKN050 16/10 A2999 RMK AO2
KUSE 230535Z AUTO 16005KT 10SM SCT047 16/10 A2999 RMK AO2
KUSE 230515Z AUTO 16006KT 10SM CLR 16/10 A3000 RMK AO2
KUSE 230455Z AUTO 16005KT 10SM CLR 17/10 A3000 RMK AO2
KUSE 230435Z AUTO 16006KT 10SM CLR 16/10 A3001 RMK AO2
KUSE 230415Z AUTO 15005KT 10SM CLR 16/10 A3002 RMK AO2
KUSE 230355Z AUTO 17006KT 10SM CLR 16/10 A3002 RMK AO2
KUSE 230335Z AUTO 17006KT 10SM CLR 17/10 A3002 RMK AO2
KUSE 230315Z AUTO 18008KT 10SM CLR 18/10 A3003 RMK AO2
KUSE 230255Z AUTO 17009KT 10SM CLR 18/10 A3004 RMK AO2
KUSE 230235Z AUTO 18010KT 10SM CLR 19/10 A3004 RMK AO2
KUSE 230215Z AUTO 17008KT 10SM CLR 19/10 A3004 RMK AO2
KUSE 230155Z AUTO 18011KT 10SM 20/10 A3004 RMK AO2
KUSE 230135Z AUTO 17010KT 10SM 19/11 A3005 RMK AO2
KUSE 230115Z AUTO 17010G17KT 10SM CLR 20/11 A3005 RMK AO2
KUSE 230055Z AUTO 18011G17KT 10SM CLR 21/11 A3005 RMK AO2
KUSE 230035Z AUTO 18012KT 10SM 21/12 A3004 RMK AO2
KUSE 230015Z AUTO 18010G16KT 10SM 21/12 A3005 RMK AO2
KUSE 222355Z AUTO 18012KT 10SM 21/12 A3005 RMK AO2
KUSE 222335Z AUTO 18011KT 10SM 22/12 A3004 RMK AO2
KUSE 222315Z AUTO 18013KT 10SM FEW110 22/12 A3004 RMK AO2
KUSE 222255Z AUTO 18010G16KT 10SM BKN110 23/12 A3004 RMK AO2
KUSE 222235Z AUTO 19010G17KT 10SM BKN110 23/12 A3004 RMK AO2
KUSE 222215Z AUTO 18014G20KT 10SM FEW110 24/12 A3004 RMK AO2
KUSE 222155Z AUTO 19014G21KT 10SM CLR 24/12 A3004 RMK AO2
KUSE 222135Z AUTO 19018KT 10SM CLR 25/13 A3004 RMK AO2
KUSE 222115Z AUTO 18017G23KT 10SM CLR 25/13 A3004 RMK AO2
KUSE 222055Z AUTO 17017KT 10SM CLR 26/13 A3003 RMK AO2
KUSE 222035Z AUTO 18017G22KT 10SM CLR 26/13 A3003 RMK AO2
KUSE 222015Z AUTO 20013G20KT 10SM CLR 26/13 A3004 RMK AO2
KUSE 221955Z AUTO 20017KT 10SM CLR 26/13 A3004 RMK AO2
KUSE 221935Z AUTO 17014G20KT 10SM CLR 25/13 A3004 RMK AO2
KUSE 221915Z AUTO 19016KT 10SM CLR 26/13 A3005 RMK AO2
KUSE 221855Z AUTO 19014G22KT 10SM CLR 26/13 A3006 RMK AO2
KUSE 221835Z AUTO 20016G23KT 10SM CLR 26/13 A3007 RMK AO2
KUSE 221815Z AUTO 20012G20KT 10SM CLR 26/13 A3008 RMK AO2
KUSE 221755Z AUTO 18016KT 10SM CLR 26/13 A3008 RMK AO2
KUSE 221735Z AUTO 20011G20KT 10SM CLR 26/13 A3010 RMK AO2
KUSE 221715Z AUTO 19016KT 10SM CLR 25/13 A3011 RMK AO2
KUSE 221655Z AUTO 20011G20KT 10SM CLR 25/13 A3012 RMK AO2
KUSE 221635Z AUTO 19015G20KT 10SM CLR 24/13 A3013 RMK AO2
KUSE 221615Z AUTO 19013KT 10SM CLR 23/13 A3013 RMK AO2
KUSE 221555Z AUTO 19012KT 10SM CLR 23/13 A3014 RMK AO2
KUSE 221535Z AUTO 19013G20KT 10SM CLR 22/12 A3015 RMK AO2
KUSE 221515Z AUTO 19014KT 10SM CLR 21/12 A3015 RMK AO2
KUSE 221455Z AUTO 19012G17KT 10SM CLR 20/12 A3015 RMK AO2
KUSE 221435Z AUTO 19013KT 10SM CLR 18/11 A3016 RMK AO2
KUSE 221415Z AUTO 18012KT 10SM CLR 17/11 A3016 RMK AO2
KUSE 221355Z AUTO 17010KT 10SM CLR 16/11 A3016 RMK AO2
KUSE 221335Z AUTO 17010KT 10SM CLR 15/11 A3017 RMK AO2
KUSE 221315Z AUTO 16009KT 10SM CLR 14/10 A3016 RMK AO2
KUSE 221255Z AUTO 16006KT 10SM CLR 13/10 A3016 RMK AO2
KUSE 221235Z AUTO 16007KT 10SM CLR 12/10 A3015 RMK AO2
KUSE 221215Z AUTO 16008KT 10SM CLR 11/09 A3014 RMK AO2
KUSE 221155Z AUTO 17005KT 10SM CLR 10/09 A3014 RMK AO2
KUSE 221135Z AUTO 16006KT 10SM CLR 11/09 A3013 RMK AO2
KUSE 221115Z AUTO 15008KT 10SM CLR 11/09 A3013 RMK AO2
KUSE 221055Z AUTO 15007KT 10SM CLR 12/10 A3014 RMK AO2
KUSE 221035Z AUTO 16006KT 10SM CLR 11/09 A3014 RMK AO2
KUSE 221015Z AUTO 16006KT 10SM CLR 10/09 A3014 RMK AO2
KUSE 220955Z AUTO 15006KT 10SM CLR 11/09 A3014 RMK AO2
KUSE 220935Z AUTO 14004KT 10SM CLR 10/09 A3014 RMK AO2
KUSE 220915Z AUTO 15005KT 10SM CLR 10/09 A3014 RMK AO2
KUSE 220855Z AUTO 15005KT 10SM CLR 10/09 A3015 RMK AO2
KUSE 220835Z AUTO 15004KT 10SM CLR 10/08 A3015 RMK AO2
KUSE 220815Z AUTO 15005KT 10SM 10/09 A3015 RMK AO2
KUSE 220755Z AUTO 15005KT 10SM CLR 11/09 A3015 RMK AO2
KUSE 220735Z AUTO 16005KT 10SM CLR 12/09 A3016 RMK AO2
KUSE 220715Z AUTO 17003KT 10SM CLR 11/09 A3016 RMK AO2
KUSE 220655Z AUTO 16003KT 10SM CLR 10/08 A3016 RMK AO2
KUSE 220635Z AUTO 15003KT 10SM CLR 10/08 A3016 RMK AO2
KUSE 220615Z AUTO 14004KT 10SM CLR 10/08 A3016 RMK AO2
KUSE 220555Z AUTO 15004KT 10SM CLR 11/08 A3016 RMK AO2
KUSE 220535Z AUTO 16004KT 10SM CLR 12/08 A3016 RMK AO2
KUSE 220515Z AUTO 16003KT 10SM 11/08 A3016 RMK AO2
KUSE 220455Z AUTO 16005KT 10SM 12/08 A3016 RMK AO2
KUSE 220435Z AUTO 00000KT 10SM CLR 12/08 A3016 RMK AO2
KUSE 220415Z AUTO 14003KT 10SM CLR 12/08 A3015 RMK AO2
KUSE 220355Z AUTO 17004KT 10SM CLR 13/08 A3016 RMK AO2
KUSE 220335Z AUTO 17006KT 10SM CLR 14/08 A3016 RMK AO2